Time;durP1;ratioP1;P1;durP2;ratioP2;P2;SDS_P1;SDS_P2;PMS_P1;PMS_P2;Temp;Humidity;BMP_temperature;BMP_pressure;BME280_temperature;BME280_humidity;BME280_pressure;Samples;Min_cycle;Max_cycle;Signal;HPM_P1;HPM_P2
2021/01/12 00:02:24;;;;;;;27.43;22.70;;;5.10;99.90;;;;;;5065014;28;20199;-66
2021/01/12 00:04:51;;;;;;;26.33;23.50;;;5.10;99.90;;;;;;5065694;28;20269;-66
2021/01/12 00:07:21;;;;;;;25.67;22.03;;;5.20;99.90;;;;;;5059998;28;20964;-66
2021/01/12 00:09:47;;;;;;;27.20;23.60;;;5.10;99.90;;;;;;5065512;28;20455;-66
2021/01/12 00:12:13;;;;;;;25.97;22.57;;;5.10;99.90;;;;;;5067464;28;20445;-66
2021/01/12 00:14:38;;;;;;;27.47;22.07;;;5.10;99.90;;;;;;5065026;28;20184;-66
2021/01/12 00:17:06;;;;;;;24.67;20.97;;;5.10;99.90;;;;;;5066046;28;20321;-66
2021/01/12 00:19:33;;;;;;;29.53;23.00;;;5.10;99.90;;;;;;5065680;28;20730;-66
2021/01/12 00:22:00;;;;;;;27.17;23.20;;;5.20;99.90;;;;;;5038309;28;20438;-66
2021/01/12 00:24:26;;;;;;;26.43;22.83;;;5.20;99.90;;;;;;5063534;28;20480;-66
2021/01/12 00:26:51;;;;;;;25.70;22.03;;;5.20;99.90;;;;;;5061148;28;20795;-66
2021/01/12 00:29:17;;;;;;;25.13;22.43;;;5.20;99.90;;;;;;5064046;28;20417;-66
2021/01/12 00:31:44;;;;;;;24.27;21.70;;;5.20;99.90;;;;;;5067069;28;20183;-66
2021/01/12 00:34:10;;;;;;;25.97;22.47;;;5.30;99.90;;;;;;5060072;28;20432;-66
2021/01/12 00:36:46;;;;;;;24.63;22.03;;;5.30;99.90;;;;;;5065473;28;20955;-66
2021/01/12 00:39:11;;;;;;;25.87;21.77;;;5.30;99.90;;;;;;5067599;28;20457;-66
2021/01/12 00:41:37;;;;;;;24.83;21.53;;;5.30;99.90;;;;;;5061255;28;20435;-66
2021/01/12 00:44:04;;;;;;;27.47;21.37;;;5.30;99.90;;;;;;5065073;28;20266;-66
2021/01/12 00:46:31;;;;;;;23.37;20.40;;;5.30;99.90;;;;;;5067175;28;20629;-66
2021/01/12 00:48:56;;;;;;;20.70;18.13;;;5.30;99.90;;;;;;5060872;28;20444;-66
2021/01/12 00:51:31;;;;;;;25.63;19.97;;;5.30;99.90;;;;;;5062981;28;20434;-66
2021/01/12 00:53:57;;;;;;;23.20;19.47;;;5.30;99.90;;;;;;5066225;28;20194;-66
2021/01/12 00:56:22;;;;;;;24.73;19.90;;;5.40;99.90;;;;;;5062356;28;20790;-66
2021/01/12 00:58:48;;;;;;;24.83;20.10;;;5.40;99.90;;;;;;5034014;28;20242;-66
2021/01/12 01:01:13;;;;;;;23.23;19.70;;;5.40;99.90;;;;;;5060132;28;20614;-66
2021/01/12 01:03:39;;;;;;;22.83;20.37;;;5.40;99.90;;;;;;5060862;28;20257;-66
2021/01/12 01:06:06;;;;;;;23.27;20.30;;;5.40;99.90;;;;;;5062819;28;20192;-66
2021/01/12 01:08:31;;;;;;;24.00;20.10;;;5.40;99.90;;;;;;5065583;28;20542;-66
2021/01/12 01:10:57;;;;;;;21.60;19.30;;;5.40;99.90;;;;;;5062321;28;20433;-66
2021/01/12 01:13:25;;;;;;;22.90;19.83;;;5.40;99.90;;;;;;5063590;28;20604;-66
2021/01/12 01:15:51;;;;;;;21.30;19.00;;;5.50;99.90;;;;;;5063434;28;20216;-66
2021/01/12 01:18:16;;;;;;;21.77;19.43;;;5.50;99.90;;;;;;5064762;28;20996;-66
2021/01/12 01:20:41;;;;;;;22.27;19.63;;;5.50;99.90;;;;;;5062703;28;20229;-66
2021/01/12 01:23:07;;;;;;;20.77;18.57;;;5.50;99.90;;;;;;5070689;28;20641;-66
2021/01/12 01:25:32;;;;;;;21.67;19.37;;;5.50;99.90;;;;;;5069175;28;20191;-66
2021/01/12 01:27:58;;;;;;;21.20;18.90;;;5.50;99.90;;;;;;5066001;28;20216;-66
2021/01/12 01:30:24;;;;;;;22.37;19.60;;;5.50;99.90;;;;;;5067267;28;20208;-66
2021/01/12 01:32:50;;;;;;;19.53;17.53;;;5.50;99.90;;;;;;5043255;28;20203;-66
2021/01/12 01:35:15;;;;;;;18.70;16.70;;;5.50;99.90;;;;;;5065649;28;20453;-66
2021/01/12 01:37:41;;;;;;;20.50;18.00;;;5.50;99.90;;;;;;5069540;28;20230;-66
2021/01/12 01:40:07;;;;;;;20.27;18.17;;;5.50;99.90;;;;;;5068297;28;20231;-66
2021/01/12 01:42:34;;;;;;;18.30;16.50;;;5.60;99.90;;;;;;5065967;28;20196;-66
2021/01/12 01:45:00;;;;;;;18.40;15.20;;;5.60;99.90;;;;;;5068721;28;20464;-66
2021/01/12 01:47:25;;;;;;;14.33;12.93;;;5.60;99.90;;;;;;5065059;28;20433;-66
2021/01/12 01:49:52;;;;;;;15.93;14.23;;;5.60;99.90;;;;;;5066238;28;20191;-66
2021/01/12 01:52:19;;;;;;;17.53;14.57;;;5.60;99.90;;;;;;5064602;28;20495;-66
2021/01/12 01:54:45;;;;;;;16.10;14.50;;;5.60;99.90;;;;;;5061523;28;20456;-66
2021/01/12 01:57:11;;;;;;;15.07;13.57;;;5.60;99.90;;;;;;5069406;28;20449;-66
2021/01/12 01:59:36;;;;;;;15.43;13.30;;;5.60;99.90;;;;;;5068769;28;20183;-66
2021/01/12 02:02:02;;;;;;;14.40;12.90;;;5.60;99.90;;;;;;5065591;28;20191;-66
2021/01/12 02:04:33;;;;;;;19.23;15.73;;;5.60;99.90;;;;;;5039857;28;20587;-66
2021/01/12 02:07:02;;;;;;;14.00;12.63;;;5.60;99.90;;;;;;5069033;28;20226;-66
2021/01/12 02:09:47;;;;;;;14.77;13.23;;;5.60;99.90;;;;;;5067555;28;20441;-66
2021/01/12 02:12:22;;;;;;;14.33;12.93;;;5.60;99.90;;;;;;5067918;28;20500;-66
2021/01/12 02:14:50;;;;;;;15.20;12.77;;;5.60;99.90;;;;;;5064298;28;20464;-66
2021/01/12 02:17:16;;;;;;;19.07;14.30;;;5.60;99.90;;;;;;5046024;28;20450;-66
2021/01/12 02:19:43;;;;;;;15.20;13.53;;;5.60;99.90;;;;;;5065642;28;20438;-66
2021/01/12 02:22:17;;;;;;;14.50;13.10;;;5.60;99.90;;;;;;5067506;28;20554;-66
2021/01/12 02:24:43;;;;;;;14.80;13.40;;;5.60;99.90;;;;;;5066689;28;20560;-66
2021/01/12 02:27:08;;;;;;;14.63;13.13;;;5.60;99.90;;;;;;5059152;28;21003;-66
2021/01/12 02:29:34;;;;;;;13.83;12.40;;;5.70;99.90;;;;;;5065503;28;20191;-66
2021/01/12 02:32:00;;;;;;;13.40;12.10;;;5.60;99.90;;;;;;5067334;28;20188;-66
2021/01/12 02:34:28;;;;;;;13.77;12.37;;;5.60;99.90;;;;;;5066732;28;20196;-66
2021/01/12 02:36:54;;;;;;;13.57;12.07;;;5.60;99.90;;;;;;5064840;28;20983;-66
2021/01/12 02:39:19;;;;;;;13.60;12.20;;;5.60;99.90;;;;;;5068434;28;20538;-66
2021/01/12 02:41:45;;;;;;;13.30;12.00;;;5.60;99.90;;;;;;5064545;28;20433;-66
2021/01/12 02:44:24;;;;;;;12.97;11.60;;;5.70;99.90;;;;;;5068941;28;20271;-66
2021/01/12 02:46:52;;;;;;;12.53;11.30;;;5.70;99.90;;;;;;5064583;28;20199;-66
2021/01/12 02:49:18;;;;;;;13.03;11.73;;;5.60;99.90;;;;;;5064142;28;20470;-66
2021/01/12 02:51:43;;;;;;;12.57;11.27;;;5.60;99.90;;;;;;5067650;28;20523;-65
2021/01/12 02:54:09;;;;;;;14.37;11.57;;;5.60;99.90;;;;;;5064094;28;20667;-66
2021/01/12 02:56:35;;;;;;;12.20;10.80;;;5.60;99.90;;;;;;5068575;28;20243;-66
2021/01/12 02:59:00;;;;;;;11.90;10.70;;;5.60;99.90;;;;;;5064420;28;20191;-66
2021/01/12 03:01:26;;;;;;;10.77;9.67;;;5.70;99.90;;;;;;5061813;28;20195;-66
2021/01/12 03:03:51;;;;;;;10.40;9.40;;;5.60;99.90;;;;;;5063060;28;20192;-66
2021/01/12 03:06:17;;;;;;;10.83;9.07;;;5.60;99.90;;;;;;5067586;28;20195;-66
2021/01/12 03:08:42;;;;;;;11.60;10.13;;;5.60;99.90;;;;;;5066947;28;20571;-66
2021/01/12 03:11:08;;;;;;;10.30;9.20;;;5.70;99.90;;;;;;5036769;28;20178;-66
2021/01/12 03:13:33;;;;;;;10.80;9.80;;;5.70;99.90;;;;;;5061193;28;20195;-66
2021/01/12 03:15:59;;;;;;;8.87;7.97;;;5.70;99.90;;;;;;5066697;28;20218;-66
2021/01/12 03:18:24;;;;;;;8.70;7.90;;;5.70;99.90;;;;;;5065648;28;20252;-67
2021/01/12 03:20:50;;;;;;;8.50;7.57;;;5.70;99.90;;;;;;5065681;28;20191;-66
2021/01/12 03:23:15;;;;;;;9.80;8.43;;;5.70;99.90;;;;;;5067390;28;20506;-66
2021/01/12 03:25:40;;;;;;;9.50;8.50;;;5.70;99.90;;;;;;5067978;28;20191;-67
2021/01/12 03:28:07;;;;;;;9.57;8.57;;;5.70;99.90;;;;;;5060177;28;20655;-67
2021/01/12 03:30:32;;;;;;;9.23;8.40;;;5.70;99.90;;;;;;5067158;28;20219;-67
2021/01/12 03:32:58;;;;;;;8.83;8.03;;;5.70;99.90;;;;;;5067119;28;20488;-67
2021/01/12 03:35:24;;;;;;;7.97;7.20;;;5.70;99.90;;;;;;5064610;28;20250;-67
2021/01/12 03:37:49;;;;;;;8.60;7.80;;;5.80;99.90;;;;;;5065812;28;20195;-67
2021/01/12 03:40:15;;;;;;;8.17;7.47;;;5.80;99.90;;;;;;5065854;28;20241;-67
2021/01/12 03:42:40;;;;;;;9.00;8.10;;;5.80;99.90;;;;;;5062968;28;20210;-67
2021/01/12 03:45:07;;;;;;;8.40;7.67;;;5.80;99.90;;;;;;5063105;28;20698;-67
2021/01/12 03:47:33;;;;;;;7.93;7.20;;;5.80;99.90;;;;;;5065807;28;20191;-67
2021/01/12 03:49:59;;;;;;;9.30;7.73;;;5.80;99.90;;;;;;5065651;28;20816;-67
2021/01/12 03:52:25;;;;;;;8.53;7.63;;;5.80;99.90;;;;;;5063240;28;20532;-67
2021/01/12 03:54:51;;;;;;;8.43;7.57;;;5.80;99.90;;;;;;5065781;28;20870;-67
2021/01/12 03:57:16;;;;;;;7.90;7.20;;;5.90;99.90;;;;;;5063956;28;20449;-67
2021/01/12 03:59:42;;;;;;;7.07;6.47;;;5.90;99.90;;;;;;5068136;28;20188;-67
2021/01/12 04:02:07;;;;;;;8.10;7.30;;;5.80;99.90;;;;;;5065863;28;20245;-67
2021/01/12 04:04:33;;;;;;;6.90;6.20;;;5.90;99.90;;;;;;5065507;28;20176;-67
2021/01/12 04:06:58;;;;;;;7.13;6.43;;;5.90;99.90;;;;;;5062301;28;20272;-67
2021/01/12 04:09:24;;;;;;;7.20;6.53;;;5.90;99.90;;;;;;5063914;28;21216;-67
2021/01/12 04:11:49;;;;;;;7.27;6.17;;;5.90;99.90;;;;;;5065140;28;20175;-67
2021/01/12 04:14:15;;;;;;;6.27;5.67;;;5.90;99.90;;;;;;5063683;28;20237;-67
2021/01/12 04:16:41;;;;;;;6.53;5.93;;;5.90;99.90;;;;;;5035877;28;20216;-67
2021/01/12 04:19:07;;;;;;;7.27;6.60;;;6.00;99.90;;;;;;5062584;28;20205;-67
2021/01/12 04:21:33;;;;;;;6.60;6.00;;;6.00;99.90;;;;;;5064702;28;20449;-67
2021/01/12 04:23:59;;;;;;;6.87;6.17;;;6.00;99.90;;;;;;5064163;28;20211;-67
2021/01/12 04:26:24;;;;;;;6.60;6.00;;;6.00;99.90;;;;;;5062069;28;20478;-67
2021/01/12 04:28:50;;;;;;;6.10;5.50;;;6.00;99.90;;;;;;5067099;28;20278;-67
2021/01/12 04:31:15;;;;;;;6.50;5.90;;;6.00;99.90;;;;;;5063141;28;20188;-67
2021/01/12 04:33:40;;;;;;;6.47;5.87;;;6.00;99.90;;;;;;5063978;28;20545;-67
2021/01/12 04:36:06;;;;;;;6.73;6.10;;;6.00;99.90;;;;;;5063900;28;20207;-67
2021/01/12 04:38:32;;;;;;;6.50;5.90;;;6.00;99.90;;;;;;5065096;28;20207;-67
2021/01/12 04:40:57;;;;;;;6.20;5.70;;;6.00;99.90;;;;;;5064359;28;20179;-67
2021/01/12 04:43:23;;;;;;;6.40;5.80;;;6.00;99.90;;;;;;5067165;28;20202;-67
2021/01/12 04:45:49;;;;;;;8.70;6.27;;;6.00;99.90;;;;;;5062623;28;20184;-67
2021/01/12 04:48:14;;;;;;;6.77;6.17;;;6.00;99.90;;;;;;5065135;28;20199;-67
2021/01/12 04:50:40;;;;;;;6.20;5.70;;;6.10;99.90;;;;;;5067303;28;20954;-67
2021/01/12 04:53:05;;;;;;;5.80;5.30;;;6.10;99.90;;;;;;5062469;28;20200;-67
2021/01/12 04:55:31;;;;;;;6.60;5.87;;;6.10;99.90;;;;;;5063925;28;20211;-67
2021/01/12 04:57:56;;;;;;;5.97;5.47;;;6.10;99.90;;;;;;5068750;28;20210;-67
2021/01/12 05:00:28;;;;;;;5.87;5.37;;;6.10;99.90;;;;;;5068822;28;20215;-67
2021/01/12 05:03:04;;;;;;;6.33;5.80;;;6.10;99.90;;;;;;5067769;28;20545;-67
2021/01/12 05:05:37;;;;;;;6.00;5.50;;;6.10;99.90;;;;;;5065949;28;20484;-67
2021/01/12 05:08:09;;;;;;;5.50;5.00;;;6.20;99.90;;;;;;5065417;28;20497;-67
2021/01/12 05:10:43;;;;;;;7.10;6.50;;;6.10;99.90;;;;;;5069727;28;20433;-67
2021/01/12 05:13:10;;;;;;;6.43;5.70;;;6.20;99.90;;;;;;5067136;28;20439;-67
2021/01/12 05:15:37;;;;;;;7.40;6.70;;;6.20;99.90;;;;;;5067773;28;21043;-67
2021/01/12 05:18:06;;;;;;;6.43;5.93;;;6.20;99.90;;;;;;5064101;28;20810;-67
2021/01/12 05:20:37;;;;;;;6.57;5.80;;;6.20;99.90;;;;;;5068451;28;20596;-67
2021/01/12 05:23:11;;;;;;;5.80;5.30;;;6.20;99.90;;;;;;5070395;28;20481;-67
2021/01/12 05:25:39;;;;;;;6.40;5.90;;;6.20;99.90;;;;;;5064256;28;20438;-67
2021/01/12 05:28:12;;;;;;;6.50;5.97;;;6.20;99.90;;;;;;5063864;28;20512;-67
2021/01/12 05:30:38;;;;;;;6.43;5.70;;;6.20;99.90;;;;;;5041532;28;20438;-67
2021/01/12 05:33:04;;;;;;;6.30;5.77;;;6.20;99.90;;;;;;5063415;28;20437;-67
2021/01/12 05:35:32;;;;;;;6.07;5.47;;;6.20;99.90;;;;;;5068670;28;20469;-67
2021/01/12 05:38:08;;;;;;;5.50;5.10;;;6.20;99.90;;;;;;5065749;28;20496;-67
2021/01/12 05:40:37;;;;;;;6.30;5.80;;;6.20;99.90;;;;;;5035497;28;20461;-67
2021/01/12 05:43:14;;;;;;;6.10;5.60;;;6.20;99.90;;;;;;5067618;28;20517;-67
2021/01/12 05:45:42;;;;;;;6.23;5.73;;;6.20;99.90;;;;;;5069282;28;20846;-67
2021/01/12 05:48:09;;;;;;;6.60;6.10;;;6.30;99.90;;;;;;5065520;28;20442;-67
2021/01/12 05:50:35;;;;;;;7.63;6.93;;;6.20;99.90;;;;;;5068330;28;20441;-67
2021/01/12 05:53:23;;;;;;;6.23;5.73;;;6.20;99.90;;;;;;5067822;28;20468;-67
2021/01/12 05:55:57;;;;;;;7.80;7.10;;;6.20;99.90;;;;;;5061853;28;20465;-67
2021/01/12 05:58:30;;;;;;;6.00;5.50;;;6.20;99.90;;;;;;5067071;28;20524;-67
2021/01/12 06:01:00;;;;;;;6.50;6.00;;;6.20;99.90;;;;;;5066056;28;20441;-67
2021/01/12 06:03:28;;;;;;;6.77;6.07;;;6.20;99.90;;;;;;5065179;28;20442;-67
2021/01/12 06:05:55;;;;;;;5.87;5.47;;;6.30;99.90;;;;;;5066488;28;20442;-67
2021/01/12 06:08:21;;;;;;;6.27;5.77;;;6.30;99.90;;;;;;5067281;28;20520;-67
2021/01/12 06:10:47;;;;;;;7.07;6.47;;;6.30;99.90;;;;;;5068323;28;20521;-67
2021/01/12 06:13:17;;;;;;;7.20;6.60;;;6.30;99.90;;;;;;5064864;28;20282;-67
2021/01/12 06:15:49;;;;;;;6.07;5.57;;;6.30;99.90;;;;;;5069159;28;20230;-67
2021/01/12 06:18:16;;;;;;;6.87;6.27;;;6.30;99.90;;;;;;5065601;28;20522;-67
2021/01/12 06:21:04;;;;;;;7.40;6.70;;;6.30;99.90;;;;;;5041489;28;20445;-67
2021/01/12 06:23:39;;;;;;;7.50;6.30;;;6.40;99.90;;;;;;5038258;28;20474;-67
2021/01/12 06:26:06;;;;;;;6.80;6.27;;;6.40;99.90;;;;;;5064948;28;20463;-67
2021/01/12 06:28:32;;;;;;;6.50;5.90;;;6.40;99.90;;;;;;5064852;28;20649;-67
2021/01/12 06:30:58;;;;;;;7.27;6.67;;;6.40;99.90;;;;;;5067386;28;21070;-67
2021/01/12 06:33:23;;;;;;;6.10;5.60;;;6.40;99.90;;;;;;5064495;28;20444;-67
2021/01/12 06:35:51;;;;;;;6.40;5.67;;;6.40;99.90;;;;;;5064424;28;20211;-67
2021/01/12 06:38:23;;;;;;;6.50;6.00;;;6.40;99.90;;;;;;5067433;28;20959;-67
2021/01/12 06:40:53;;;;;;;6.40;5.90;;;6.50;99.90;;;;;;5069131;28;20496;-67
2021/01/12 06:43:23;;;;;;;5.80;5.30;;;6.50;99.90;;;;;;5067097;28;20481;-67
2021/01/12 06:45:51;;;;;;;6.30;5.80;;;6.50;99.90;;;;;;5066674;28;20465;-67
2021/01/12 06:48:18;;;;;;;6.10;5.30;;;6.50;99.90;;;;;;5065530;28;20528;-67
2021/01/12 06:50:46;;;;;;;5.73;5.33;;;6.50;99.90;;;;;;5066731;28;20480;-67
2021/01/12 06:53:15;;;;;;;6.00;5.50;;;6.50;99.90;;;;;;5062647;28;20468;-67
2021/01/12 06:55:41;;;;;;;6.57;6.07;;;6.60;99.90;;;;;;5068136;28;20864;-67
2021/01/12 06:58:10;;;;;;;6.70;6.10;;;6.60;99.90;;;;;;5067236;28;20462;-67
2021/01/12 07:00:37;;;;;;;5.67;5.20;;;6.60;99.90;;;;;;5068079;28;20426;-67
2021/01/12 07:03:04;;;;;;;6.40;5.80;;;6.60;99.90;;;;;;5063988;28;20529;-67
2021/01/12 07:06:00;;;;;;;6.10;5.60;;;6.60;99.90;;;;;;5066025;28;20434;-67
2021/01/12 07:08:28;;;;;;;5.67;5.23;;;6.60;99.90;;;;;;5063186;28;20537;-67
2021/01/12 07:10:54;;;;;;;5.97;5.47;;;6.60;99.90;;;;;;5034075;28;20449;-67
2021/01/12 07:13:19;;;;;;;7.03;6.33;;;6.60;99.90;;;;;;5066148;28;20473;-67
2021/01/12 07:15:47;;;;;;;6.13;5.60;;;6.70;99.90;;;;;;5065552;28;20504;-67
2021/01/12 07:18:13;;;;;;;5.53;5.13;;;6.70;99.90;;;;;;5066017;28;20219;-67
2021/01/12 07:20:39;;;;;;;5.33;4.90;;;6.70;99.90;;;;;;5064013;28;20499;-67
2021/01/12 07:23:09;;;;;;;5.27;4.87;;;6.70;99.90;;;;;;5063413;28;20438;-67
2021/01/12 07:25:36;;;;;;;5.57;5.07;;;6.70;99.90;;;;;;5064593;28;20508;-67
2021/01/12 07:28:07;;;;;;;6.03;5.53;;;6.70;99.90;;;;;;5060697;28;20437;-67
2021/01/12 07:30:39;;;;;;;6.27;5.77;;;6.80;99.90;;;;;;5066727;28;20438;-67
2021/01/12 07:33:07;;;;;;;5.40;5.00;;;6.80;99.90;;;;;;5065779;28;20437;-67
2021/01/12 07:35:34;;;;;;;6.20;5.70;;;6.80;99.90;;;;;;5065506;28;20559;-67
2021/01/12 07:38:00;;;;;;;7.57;6.63;;;6.80;99.90;;;;;;5059480;28;20946;-67
2021/01/12 07:40:26;;;;;;;6.00;5.40;;;6.80;99.90;;;;;;5064425;28;20515;-67
2021/01/12 07:42:57;;;;;;;6.53;5.70;;;6.90;99.90;;;;;;5063631;28;20450;-67
2021/01/12 07:45:35;;;;;;;5.73;5.33;;;6.90;99.90;;;;;;5066797;28;20524;-67
2021/01/12 07:48:02;;;;;;;5.77;5.33;;;6.90;99.90;;;;;;5055342;28;20937;-67
2021/01/12 07:50:30;;;;;;;6.10;5.60;;;6.90;99.90;;;;;;5062277;28;20523;-67
2021/01/12 07:52:57;;;;;;;6.60;6.00;;;6.90;99.90;;;;;;5062639;28;20455;-67
2021/01/12 07:55:26;;;;;;;6.93;6.33;;;6.90;99.90;;;;;;5060556;28;20560;-67
2021/01/12 07:57:52;;;;;;;7.63;6.63;;;6.90;99.90;;;;;;5067127;28;20450;-67
2021/01/12 08:00:19;;;;;;;7.17;6.57;;;7.00;99.90;;;;;;5061043;28;20434;-67
2021/01/12 08:02:50;;;;;;;5.70;5.20;;;7.00;99.90;;;;;;5068842;28;20437;-67
2021/01/12 08:05:18;;;;;;;5.70;5.20;;;7.00;99.90;;;;;;5063845;28;20958;-67
2021/01/12 08:07:44;;;;;;;5.17;4.77;;;7.00;99.90;;;;;;5062861;28;20499;-67
2021/01/12 08:10:10;;;;;;;4.97;4.40;;;7.00;99.90;;;;;;5061113;28;20445;-67
2021/01/12 08:12:36;;;;;;;4.93;4.53;;;7.00;99.90;;;;;;5065197;28;20426;-67
2021/01/12 08:15:10;;;;;;;6.00;5.53;;;7.00;99.90;;;;;;5046100;28;20783;-67
2021/01/12 08:17:36;;;;;;;4.70;4.40;;;7.00;99.90;;;;;;5063122;28;20269;-67
2021/01/12 08:20:06;;;;;;;5.07;4.60;;;7.00;99.90;;;;;;5064970;28;20449;-67
2021/01/12 08:22:31;;;;;;;4.67;4.27;;;7.10;99.90;;;;;;5065572;28;20444;-67
2021/01/12 08:25:06;;;;;;;4.33;3.93;;;7.10;99.90;;;;;;5060277;28;20796;-67
2021/01/12 08:27:32;;;;;;;6.10;5.40;;;7.10;99.90;;;;;;5059776;28;20218;-67
2021/01/12 08:30:09;;;;;;;4.83;4.43;;;7.10;99.90;;;;;;5064012;28;21019;-67
2021/01/12 08:32:39;;;;;;;5.60;5.10;;;7.20;99.90;;;;;;5065113;28;20567;-67
2021/01/12 08:35:10;;;;;;;6.87;6.27;;;7.20;99.90;;;;;;5065788;28;20896;-67
2021/01/12 08:37:40;;;;;;;6.00;5.50;;;7.20;99.90;;;;;;5066670;28;20438;-67
2021/01/12 08:40:08;;;;;;;5.40;4.90;;;7.20;99.90;;;;;;5070549;28;20458;-67
2021/01/12 08:42:38;;;;;;;5.93;5.43;;;7.20;99.90;;;;;;5067985;28;20491;-67
2021/01/12 08:45:09;;;;;;;6.20;5.70;;;7.30;99.90;;;;;;5067319;28;20574;-67
2021/01/12 08:47:35;;;;;;;6.50;5.97;;;7.30;99.90;;;;;;5066781;28;20497;-67
2021/01/12 08:50:05;;;;;;;6.30;5.80;;;7.30;99.90;;;;;;5066724;28;20449;-67
2021/01/12 08:52:31;;;;;;;5.60;5.20;;;7.30;99.90;;;;;;5067027;28;20988;-67
2021/01/12 08:54:57;;;;;;;5.63;5.13;;;7.30;99.90;;;;;;5068133;28;20434;-67
2021/01/12 08:57:22;;;;;;;5.53;5.03;;;7.30;99.90;;;;;;5049512;28;20938;-67
2021/01/12 08:59:48;;;;;;;4.90;4.50;;;7.30;99.90;;;;;;5048927;28;20175;-67
2021/01/12 09:02:18;;;;;;;4.33;3.93;;;7.40;99.90;;;;;;5038287;28;20188;-67
2021/01/12 09:04:44;;;;;;;4.33;4.03;;;7.40;99.90;;;;;;5063446;28;20542;-67
2021/01/12 09:07:09;;;;;;;5.23;4.83;;;7.40;99.90;;;;;;5066353;28;20442;-67
2021/01/12 09:09:35;;;;;;;4.97;4.47;;;7.40;99.90;;;;;;5063451;28;20466;-67
2021/01/12 09:12:02;;;;;;;5.53;5.03;;;7.50;99.90;;;;;;5068225;28;20176;-67
2021/01/12 09:14:30;;;;;;;5.77;5.20;;;7.50;99.90;;;;;;5067803;28;20176;-67
2021/01/12 09:17:03;;;;;;;5.67;4.57;;;7.50;99.90;;;;;;5067793;28;20572;-67
2021/01/12 09:19:39;;;;;;;5.10;4.60;;;7.50;99.90;;;;;;5066692;28;20798;-67
2021/01/12 09:22:16;;;;;;;6.03;5.50;;;7.50;99.90;;;;;;5037615;28;20437;-67
2021/01/12 09:24:49;;;;;;;5.60;5.10;;;7.50;99.90;;;;;;5062775;28;20414;-67
2021/01/12 09:27:20;;;;;;;5.93;5.30;;;7.60;99.90;;;;;;5059923;28;20532;-67
2021/01/12 09:29:46;;;;;;;5.80;5.20;;;7.60;99.90;;;;;;5066238;28;20490;-67
2021/01/12 09:32:12;;;;;;;5.60;5.10;;;7.60;99.90;;;;;;5067637;28;20437;-67
2021/01/12 09:34:40;;;;;;;5.90;5.30;;;7.60;99.90;;;;;;5062448;28;20498;-67
2021/01/12 09:37:19;;;;;;;9.13;7.30;;;7.60;99.90;;;;;;5067615;28;20212;-67
2021/01/12 09:39:56;;;;;;;14.00;11.43;;;7.70;99.90;;;;;;5065375;28;20457;-67
2021/01/12 09:42:27;;;;;;;17.53;10.20;;;7.70;99.90;;;;;;5064747;28;20434;-67
2021/01/12 09:44:53;;;;;;;7.60;6.80;;;7.70;99.90;;;;;;5068020;28;20480;-67
2021/01/12 09:47:20;;;;;;;9.07;8.13;;;7.70;99.90;;;;;;5063091;28;20434;-67
2021/01/12 09:49:46;;;;;;;6.53;5.93;;;7.70;99.90;;;;;;5065515;28;20878;-67
2021/01/12 09:52:12;;;;;;;8.63;7.23;;;7.80;99.90;;;;;;5046678;28;20521;-67
2021/01/12 09:54:45;;;;;;;6.83;6.23;;;7.80;99.90;;;;;;5065573;28;20184;-67
2021/01/12 09:57:11;;;;;;;6.33;5.80;;;7.80;99.90;;;;;;5063186;28;20497;-67
2021/01/12 09:59:37;;;;;;;6.10;5.60;;;7.80;99.90;;;;;;5064393;28;20517;-67
2021/01/12 10:02:02;;;;;;;5.77;5.17;;;7.90;99.90;;;;;;5065302;28;20973;-67
2021/01/12 10:04:28;;;;;;;6.40;5.90;;;7.90;99.90;;;;;;5063283;28;20199;-67
2021/01/12 10:06:57;;;;;;;7.27;5.60;;;7.90;99.90;;;;;;5062538;28;20186;-67
2021/01/12 10:09:23;;;;;;;5.77;5.17;;;7.90;99.90;;;;;;5038494;28;20184;-67
2021/01/12 10:11:49;;;;;;;5.33;4.83;;;7.90;99.90;;;;;;5065369;28;20434;-67
2021/01/12 10:14:14;;;;;;;6.47;5.60;;;7.90;99.90;;;;;;5066538;28;20926;-67
2021/01/12 10:16:40;;;;;;;7.40;5.80;;;7.90;99.90;;;;;;5059804;28;20822;-67
2021/01/12 10:19:06;;;;;;;5.20;4.70;;;7.90;99.90;;;;;;5062653;28;20180;-67
2021/01/12 10:21:31;;;;;;;4.90;4.50;;;7.90;99.90;;;;;;5064704;28;20533;-67
2021/01/12 10:23:57;;;;;;;3.97;3.67;;;7.90;99.90;;;;;;5062580;28;20312;-67
2021/01/12 10:26:22;;;;;;;3.13;2.83;;;7.90;99.90;;;;;;5059124;28;20559;-67
2021/01/12 10:28:48;;;;;;;5.03;3.40;;;7.90;99.90;;;;;;5062891;28;20211;-67
2021/01/12 10:31:15;;;;;;;3.87;3.50;;;7.90;99.90;;;;;;5063283;28;20179;-67
2021/01/12 10:33:43;;;;;;;4.80;3.93;;;7.90;99.90;;;;;;5066205;28;20191;-67
2021/01/12 10:36:13;;;;;;;4.27;3.87;;;7.90;99.90;;;;;;5064426;28;20815;-67
2021/01/12 10:38:38;;;;;;;4.77;4.33;;;8.00;99.90;;;;;;5064654;28;20465;-67
2021/01/12 10:41:04;;;;;;;4.67;4.07;;;8.00;99.90;;;;;;5048524;28;20432;-67
2021/01/12 10:43:29;;;;;;;5.43;5.03;;;8.00;99.90;;;;;;5062975;28;20201;-67
2021/01/12 10:45:55;;;;;;;7.10;5.20;;;8.00;99.90;;;;;;5062514;28;20194;-67
2021/01/12 10:48:21;;;;;;;5.67;4.97;;;8.10;99.90;;;;;;5062568;28;20556;-67
2021/01/12 10:50:46;;;;;;;8.90;5.90;;;8.10;99.90;;;;;;5061797;28;20202;-67
2021/01/12 10:53:12;;;;;;;6.00;5.33;;;8.10;99.90;;;;;;5066054;28;20219;-67
2021/01/12 10:55:37;;;;;;;8.83;6.30;;;8.10;99.90;;;;;;5067777;28;20689;-67
2021/01/12 10:58:03;;;;;;;6.13;5.53;;;8.10;99.90;;;;;;5061293;28;20652;-67
2021/01/12 11:00:29;;;;;;;6.53;5.10;;;8.10;99.90;;;;;;5064366;28;20195;-67
2021/01/12 11:02:55;;;;;;;6.07;5.47;;;8.10;99.90;;;;;;5061739;28;20657;-67
2021/01/12 11:05:20;;;;;;;5.20;4.50;;;8.10;99.90;;;;;;5062224;28;20882;-67
2021/01/12 11:07:46;;;;;;;5.53;4.80;;;8.10;99.90;;;;;;5060062;28;20437;-67
2021/01/12 11:10:12;;;;;;;4.77;4.47;;;8.20;99.90;;;;;;5064753;28;20392;-67
2021/01/12 11:12:38;;;;;;;5.03;4.60;;;8.10;99.90;;;;;;5065239;28;20211;-67
2021/01/12 11:15:04;;;;;;;6.93;4.90;;;8.20;99.90;;;;;;5067711;28;20473;-67
2021/01/12 11:17:31;;;;;;;5.37;4.83;;;8.20;99.90;;;;;;5065261;28;20509;-67
2021/01/12 11:19:57;;;;;;;6.57;5.97;;;8.20;99.90;;;;;;5066266;28;20934;-67
2021/01/12 11:22:31;;;;;;;6.63;5.07;;;8.20;99.90;;;;;;5063946;28;20430;-67
2021/01/12 11:25:00;;;;;;;5.37;4.87;;;8.30;99.90;;;;;;5060804;28;20213;-67
2021/01/12 11:27:26;;;;;;;6.07;5.47;;;8.30;99.90;;;;;;5060772;28;20517;-67
2021/01/12 11:29:53;;;;;;;7.90;7.03;;;8.40;99.90;;;;;;5063339;28;20564;-67
2021/01/12 11:32:19;;;;;;;8.07;6.77;;;8.40;99.90;;;;;;5061146;28;20666;-67
2021/01/12 11:34:44;;;;;;;5.93;5.30;;;8.50;99.90;;;;;;5062331;28;20461;-67
2021/01/12 11:37:11;;;;;;;5.43;4.97;;;8.50;99.90;;;;;;5067017;28;20474;-67
2021/01/12 11:39:37;;;;;;;9.77;6.80;;;8.60;99.90;;;;;;5067523;28;20982;-67
2021/01/12 11:42:05;;;;;;;5.77;5.00;;;8.60;99.90;;;;;;5064190;28;20475;-67
2021/01/12 11:44:31;;;;;;;7.30;3.90;;;8.60;99.90;;;;;;5060582;28;20188;-67
2021/01/12 11:46:56;;;;;;;5.53;3.77;;;8.60;99.90;;;;;;5063868;28;20535;-67
2021/01/12 11:49:22;;;;;;;4.80;3.67;;;8.60;99.90;;;;;;5063566;28;20454;-67
2021/01/12 11:51:51;;;;;;;4.67;3.90;;;8.60;99.90;;;;;;5063072;28;20195;-67
2021/01/12 11:54:17;;;;;;;4.40;3.97;;;8.50;99.90;;;;;;5066512;28;20660;-67
2021/01/12 11:56:48;;;;;;;5.77;5.27;;;8.50;99.90;;;;;;5063912;28;20508;-67
2021/01/12 11:59:14;;;;;;;11.57;8.03;;;8.40;99.90;;;;;;5066412;28;20724;-67
2021/01/12 12:01:48;;;;;;;8.20;5.93;;;8.40;99.90;;;;;;5063105;28;20517;-67
2021/01/12 12:04:14;;;;;;;5.63;4.70;;;8.30;99.90;;;;;;5057120;28;20258;-67
2021/01/12 12:06:40;;;;;;;4.90;4.10;;;8.20;99.90;;;;;;5063330;28;20422;-67
2021/01/12 12:09:06;;;;;;;7.43;4.33;;;8.10;99.90;;;;;;5062852;28;20437;-66
2021/01/12 12:11:39;;;;;;;6.00;4.90;;;8.00;99.90;;;;;;5057710;28;20188;-66
2021/01/12 12:14:06;;;;;;;4.50;3.77;;;7.90;99.90;;;;;;5060116;28;20449;-66
2021/01/12 12:16:33;;;;;;;5.10;3.90;;;7.90;99.90;;;;;;5059736;28;20489;-66
2021/01/12 12:19:00;;;;;;;3.53;3.23;;;7.80;99.90;;;;;;5062911;28;20449;-66
2021/01/12 12:21:26;;;;;;;7.57;4.83;;;7.80;99.90;;;;;;5064705;28;20441;-66
2021/01/12 12:23:51;;;;;;;5.80;5.30;;;7.80;99.90;;;;;;5061370;28;20438;-66
2021/01/12 12:26:17;;;;;;;6.70;6.10;;;7.80;99.90;;;;;;5061621;28;20868;-66
2021/01/12 12:28:43;;;;;;;6.80;6.10;;;7.90;99.90;;;;;;5062547;28;20274;-66
2021/01/12 12:31:09;;;;;;;8.93;8.00;;;7.90;99.90;;;;;;5061546;28;20183;-66
2021/01/12 12:33:36;;;;;;;8.80;7.93;;;8.00;99.90;;;;;;5061635;28;20426;-66
2021/01/12 12:36:13;;;;;;;7.27;6.57;;;8.00;99.90;;;;;;5064350;28;20454;-66
2021/01/12 12:38:41;;;;;;;8.73;7.20;;;8.00;99.90;;;;;;5034554;28;20522;-66
2021/01/12 12:41:14;;;;;;;5.73;5.10;;;7.90;99.90;;;;;;5064390;28;20493;-66
2021/01/12 12:43:41;;;;;;;5.43;4.70;;;7.90;99.90;;;;;;5042977;28;20541;-66
2021/01/12 12:46:07;;;;;;;4.80;4.40;;;7.80;99.90;;;;;;5065613;28;20445;-66
2021/01/12 12:48:34;;;;;;;4.47;4.07;;;7.80;99.90;;;;;;5060873;28;20438;-66
2021/01/12 12:50:59;;;;;;;4.67;4.27;;;7.70;99.90;;;;;;5066664;28;20491;-66
2021/01/12 12:53:26;;;;;;;4.40;4.00;;;7.70;99.90;;;;;;5064703;28;20982;-66
2021/01/12 12:55:52;;;;;;;3.70;3.40;;;7.60;99.90;;;;;;5063779;28;20672;-66